Time;durP1;ratioP1;P1;durP2;ratioP2;P2;SDS_P1;SDS_P2;PMS_P1;PMS_P2;Temp;Humidity;BMP_temperature;BMP_pressure;BME280_temperature;BME280_humidity;BME280_pressure;Samples;Min_cycle;Max_cycle;Signal;HPM_P1;HPM_P2
2022/09/11 00:00:25;;;;;;;;;12.67;12.67;;;;;;;;5070858;27;45476;-73
2022/09/11 00:02:51;;;;;;;;;17.00;14.67;;;;;;;;5087817;27;45313;-73
2022/09/11 00:05:16;;;;;;;;;15.67;15.00;;;;;;;;5070793;27;45567;-73
2022/09/11 00:07:41;;;;;;;;;14.33;13.00;;;;;;;;5084301;27;45601;-73
2022/09/11 00:10:06;;;;;;;;;14.33;13.33;;;;;;;;5081598;28;45334;-73
2022/09/11 00:12:32;;;;;;;;;18.67;17.67;;;;;;;;5081610;27;45356;-73
2022/09/11 00:14:57;;;;;;;;;16.33;14.67;;;;;;;;5074580;28;45296;-73
2022/09/11 00:17:22;;;;;;;;;17.00;13.33;;;;;;;;5081747;27;45370;-73
2022/09/11 00:19:47;;;;;;;;;12.67;11.67;;;;;;;;5075932;28;45320;-73
2022/09/11 00:22:13;;;;;;;;;15.00;12.67;;;;;;;;5086927;27;45267;-73
2022/09/11 00:24:38;;;;;;;;;14.67;12.00;;;;;;;;5075461;27;45223;-73
2022/09/11 00:27:03;;;;;;;;;12.33;12.33;;;;;;;;5082310;27;45305;-73
2022/09/11 00:29:28;;;;;;;;;10.67;10.67;;;;;;;;5081145;27;45237;-73
2022/09/11 00:31:54;;;;;;;;;12.33;11.00;;;;;;;;5082667;27;45925;-73
2022/09/11 00:34:20;;;;;;;;;13.00;11.33;;;;;;;;5076161;27;45218;-73
2022/09/11 00:36:45;;;;;;;;;12.33;12.33;;;;;;;;5074467;27;45217;-73
2022/09/11 00:39:11;;;;;;;;;12.00;12.00;;;;;;;;5068563;28;46119;-73
2022/09/11 00:41:38;;;;;;;;;15.33;12.67;;;;;;;;5076385;27;46937;-73
2022/09/11 00:44:06;;;;;;;;;11.00;11.00;;;;;;;;5081664;27;45428;-73
2022/09/11 00:46:40;;;;;;;;;12.67;11.33;;;;;;;;5085402;27;45602;-72
2022/09/11 00:49:19;;;;;;;;;12.00;12.00;;;;;;;;5102948;27;45792;-72
2022/09/11 00:51:46;;;;;;;;;13.00;13.00;;;;;;;;5083010;27;46145;-72
2022/09/11 00:54:14;;;;;;;;;15.33;11.00;;;;;;;;5077956;27;45216;-72
2022/09/11 00:56:40;;;;;;;;;13.00;12.00;;;;;;;;5079288;27;45385;-72
2022/09/11 00:59:06;;;;;;;;;14.33;14.33;;;;;;;;5080741;27;45296;-72
2022/09/11 01:01:32;;;;;;;;;14.33;12.33;;;;;;;;5084005;27;46035;-73
2022/09/11 01:03:59;;;;;;;;;15.33;14.33;;;;;;;;5098300;27;45259;-72
2022/09/11 01:06:25;;;;;;;;;14.00;13.67;;;;;;;;5084150;27;45364;-72
2022/09/11 01:08:51;;;;;;;;;13.00;13.00;;;;;;;;5085869;27;45418;-72
2022/09/11 01:11:19;;;;;;;;;13.33;13.33;;;;;;;;5082809;27;45986;-72
2022/09/11 01:13:45;;;;;;;;;19.00;14.67;;;;;;;;5068612;28;45301;-73
2022/09/11 01:16:22;;;;;;;;;14.33;13.00;;;;;;;;5074917;27;45593;-72
2022/09/11 01:19:04;;;;;;;;;23.00;19.00;;;;;;;;5074273;28;45208;-72
2022/09/11 01:21:51;;;;;;;;;15.33;14.33;;;;;;;;5080602;27;46120;-72
2022/09/11 01:24:22;;;;;;;;;12.00;12.00;;;;;;;;5070163;28;45334;-72
2022/09/11 01:27:06;;;;;;;;;14.67;14.67;;;;;;;;5083058;27;45437;-72
2022/09/11 01:29:31;;;;;;;;;16.67;14.33;;;;;;;;5075055;27;45129;-72
2022/09/11 01:32:06;;;;;;;;;15.25;13.50;;;;;;;;5088080;27;46302;-72
2022/09/11 01:34:47;;;;;;;;;12.00;11.67;;;;;;;;5074298;28;45255;-73
2022/09/11 01:37:20;;;;;;;;;19.67;14.67;;;;;;;;5078620;27;45440;-72
2022/09/11 01:39:52;;;;;;;;;15.00;13.33;;;;;;;;5078232;27;45318;-72
2022/09/11 01:42:19;;;;;;;;;13.33;12.00;;;;;;;;5083525;27;45473;-72
2022/09/11 01:44:47;;;;;;;;;16.67;14.00;;;;;;;;5076334;28;45408;-72
2022/09/11 01:47:15;;;;;;;;;14.50;14.00;;;;;;;;5081640;27;45782;-72
2022/09/11 01:49:42;;;;;;;;;18.00;16.33;;;;;;;;5083978;27;45231;-72
2022/09/11 01:52:09;;;;;;;;;12.67;12.67;;;;;;;;5079969;27;45534;-72
2022/09/11 01:54:41;;;;;;;;;14.33;13.00;;;;;;;;5080903;27;45412;-72
2022/09/11 01:57:08;;;;;;;;;16.33;16.00;;;;;;;;5077957;27;45437;-72
2022/09/11 01:59:36;;;;;;;;;17.67;14.33;;;;;;;;5083526;27;45481;-72
2022/09/11 02:02:05;;;;;;;;;14.33;13.00;;;;;;;;5083491;27;46138;-72
2022/09/11 02:04:43;;;;;;;;;16.33;16.33;;;;;;;;5087418;27;45300;-72
2022/09/11 02:07:11;;;;;;;;;16.33;15.33;;;;;;;;5078424;27;45485;-72
2022/09/11 02:09:38;;;;;;;;;17.33;15.67;;;;;;;;5067870;28;45334;-73
2022/09/11 02:12:06;;;;;;;;;15.33;15.33;;;;;;;;5079450;27;47000;-72
2022/09/11 02:14:37;;;;;;;;;19.25;16.25;;;;;;;;5068483;28;45225;-72
2022/09/11 02:17:16;;;;;;;;;16.67;15.00;;;;;;;;5083200;27;45428;-73
2022/09/11 02:19:42;;;;;;;;;18.33;14.67;;;;;;;;5071997;28;45412;-73
2022/09/11 02:22:07;;;;;;;;;24.00;16.50;;;;;;;;5086136;27;45527;-73
2022/09/11 02:24:32;;;;;;;;;14.33;12.00;;;;;;;;5072198;28;45478;-73
2022/09/11 02:27:02;;;;;;;;;13.67;13.33;;;;;;;;5060495;27;45406;-73
2022/09/11 02:29:28;;;;;;;;;16.00;13.67;;;;;;;;5053104;28;45334;-73
2022/09/11 02:31:53;;;;;;;;;14.67;14.67;;;;;;;;5054697;28;45154;-73
2022/09/11 02:34:23;;;;;;;;;16.33;16.00;;;;;;;;5055828;28;45373;-73
2022/09/11 02:36:54;;;;;;;;;19.00;17.00;;;;;;;;5056252;28;45446;-73
2022/09/11 02:39:38;;;;;;;;;14.00;14.00;;;;;;;;5058165;28;45446;-73
2022/09/11 02:42:25;;;;;;;;;15.00;15.00;;;;;;;;5050217;27;46988;-73
2022/09/11 02:45:11;;;;;;;;;16.00;15.00;;;;;;;;5055976;28;45354;-73
2022/09/11 02:47:52;;;;;;;;;20.75;16.00;;;;;;;;5036012;28;45534;-73
2022/09/11 02:50:26;;;;;;;;;18.25;15.25;;;;;;;;5057085;28;45355;-73
2022/09/11 02:53:10;;;;;;;;;16.00;13.33;;;;;;;;5067199;28;48330;-73
2022/09/11 02:55:41;;;;;;;;;14.33;14.33;;;;;;;;5047188;28;45297;-73
2022/09/11 02:58:15;;;;;;;;;22.00;16.00;;;;;;;;5056692;28;45475;-73
2022/09/11 03:00:40;;;;;;;;;13.67;11.67;;;;;;;;5053621;28;45292;-73
2022/09/11 03:03:06;;;;;;;;;15.33;14.33;;;;;;;;5050537;28;46479;-73
2022/09/11 03:05:31;;;;;;;;;16.00;14.75;;;;;;;;5054248;28;45246;-73
2022/09/11 03:07:57;;;;;;;;;14.00;12.00;;;;;;;;5053063;28;45567;-73
2022/09/11 03:10:22;;;;;;;;;16.67;11.33;;;;;;;;5054243;28;45281;-73
2022/09/11 03:12:47;;;;;;;;;12.00;12.00;;;;;;;;5078982;27;47095;-73
2022/09/11 03:15:13;;;;;;;;;14.00;13.00;;;;;;;;5044740;28;45337;-73
2022/09/11 03:17:38;;;;;;;;;17.67;15.67;;;;;;;;5051156;28;45448;-73
2022/09/11 03:20:04;;;;;;;;;14.00;12.33;;;;;;;;5049301;27;45476;-73
2022/09/11 03:22:29;;;;;;;;;12.00;11.67;;;;;;;;5062805;28;48305;-73
2022/09/11 03:24:54;;;;;;;;;15.00;13.67;;;;;;;;5051121;28;45326;-73
2022/09/11 03:27:20;;;;;;;;;15.00;13.67;;;;;;;;5051310;28;45359;-73
2022/09/11 03:29:45;;;;;;;;;14.33;13.33;;;;;;;;5053009;28;45395;-73
2022/09/11 03:32:11;;;;;;;;;13.00;13.00;;;;;;;;5067287;28;47737;-73
2022/09/11 03:34:36;;;;;;;;;14.00;12.67;;;;;;;;5053961;28;45387;-74
2022/09/11 03:37:01;;;;;;;;;13.00;11.33;;;;;;;;5054674;28;45434;-73
2022/09/11 03:39:27;;;;;;;;;13.33;12.00;;;;;;;;5054700;28;45465;-73
2022/09/11 03:41:53;;;;;;;;;12.67;12.67;;;;;;;;5050563;28;47803;-73
2022/09/11 03:44:18;;;;;;;;;14.50;14.50;;;;;;;;5050242;28;45225;-73
2022/09/11 03:46:43;;;;;;;;;15.25;15.25;;;;;;;;5052542;28;45348;-73
2022/09/11 03:49:08;;;;;;;;;14.50;13.00;;;;;;;;5055468;28;45324;-73
2022/09/11 03:51:34;;;;;;;;;19.25;18.25;;;;;;;;5054426;28;45414;-73
2022/09/11 03:54:02;;;;;;;;;24.25;18.50;;;;;;;;5061295;28;45343;-73
2022/09/11 03:56:30;;;;;;;;;25.50;20.75;;;;;;;;5070186;28;45307;-72
2022/09/11 03:58:56;;;;;;;;;26.25;19.50;;;;;;;;5054494;28;45354;-73
2022/09/11 04:01:21;;;;;;;;;24.00;17.75;;;;;;;;5045228;28;45611;-73
2022/09/11 04:03:47;;;;;;;;;15.50;15.25;;;;;;;;5057529;28;45359;-73
2022/09/11 04:06:12;;;;;;;;;16.25;15.75;;;;;;;;5063272;28;45244;-73
2022/09/11 04:08:38;;;;;;;;;16.50;16.25;;;;;;;;5060686;28;45515;-73
2022/09/11 04:11:04;;;;;;;;;18.00;17.00;;;;;;;;5056702;28;45196;-73
2022/09/11 04:13:31;;;;;;;;;20.67;19.33;;;;;;;;5059011;28;45425;-73
2022/09/11 04:16:03;;;;;;;;;19.33;17.33;;;;;;;;5052532;28;45186;-72
2022/09/11 04:18:29;;;;;;;;;21.25;19.00;;;;;;;;5061154;28;45276;-73
2022/09/11 04:20:54;;;;;;;;;17.25;16.00;;;;;;;;5054829;28;45522;-73
2022/09/11 04:23:20;;;;;;;;;15.67;13.00;;;;;;;;5057760;28;45364;-73
2022/09/11 04:25:45;;;;;;;;;17.75;15.50;;;;;;;;5057190;28;45351;-73
2022/09/11 04:28:11;;;;;;;;;16.33;16.00;;;;;;;;5066452;28;45699;-73
2022/09/11 04:30:37;;;;;;;;;16.33;13.33;;;;;;;;5059741;27;46304;-73
2022/09/11 04:33:04;;;;;;;;;16.33;15.00;;;;;;;;5063878;28;45301;-73
2022/09/11 04:35:29;;;;;;;;;16.00;15.00;;;;;;;;5051074;28;45414;-73
2022/09/11 04:37:54;;;;;;;;;17.00;15.00;;;;;;;;5057283;28;45283;-73
2022/09/11 04:40:20;;;;;;;;;17.00;14.33;;;;;;;;5059238;28;46174;-73
2022/09/11 04:42:45;;;;;;;;;15.67;12.00;;;;;;;;5050406;28;45514;-73
2022/09/11 04:45:11;;;;;;;;;19.33;16.00;;;;;;;;5058167;28;45323;-73
2022/09/11 04:47:36;;;;;;;;;16.67;15.00;;;;;;;;5049271;28;45348;-73
2022/09/11 04:50:01;;;;;;;;;16.67;14.00;;;;;;;;5055919;28;45296;-73
2022/09/11 04:52:26;;;;;;;;;15.00;15.00;;;;;;;;5052116;28;45628;-73
2022/09/11 04:54:52;;;;;;;;;16.67;15.33;;;;;;;;5060966;28;45427;-73
2022/09/11 04:57:17;;;;;;;;;15.33;12.67;;;;;;;;5052144;28;45454;-73
2022/09/11 04:59:42;;;;;;;;;17.67;15.00;;;;;;;;5050029;28;45989;-73
2022/09/11 05:02:07;;;;;;;;;20.00;12.67;;;;;;;;5047674;28;45255;-73
2022/09/11 05:04:32;;;;;;;;;14.25;14.00;;;;;;;;5050307;28;45517;-73
2022/09/11 05:06:58;;;;;;;;;15.00;12.67;;;;;;;;5052930;28;45755;-72
2022/09/11 05:09:24;;;;;;;;;14.67;14.67;;;;;;;;5056878;28;45252;-73
2022/09/11 05:11:49;;;;;;;;;17.50;13.00;;;;;;;;5057255;28;45449;-73
2022/09/11 05:14:14;;;;;;;;;16.67;16.67;;;;;;;;5056880;28;45346;-73
2022/09/11 05:16:40;;;;;;;;;15.67;14.00;;;;;;;;5053710;28;45395;-73
2022/09/11 05:19:05;;;;;;;;;15.33;13.33;;;;;;;;5080230;27;47389;-73
2022/09/11 05:21:31;;;;;;;;;19.67;18.33;;;;;;;;5052798;28;45494;-73
2022/09/11 05:23:57;;;;;;;;;15.67;14.33;;;;;;;;5058553;28;45193;-73
2022/09/11 05:26:27;;;;;;;;;15.67;15.33;;;;;;;;5052542;28;45598;-72
2022/09/11 05:28:56;;;;;;;;;17.33;14.33;;;;;;;;5055763;28;45406;-72
2022/09/11 05:31:22;;;;;;;;;24.67;17.33;;;;;;;;5056310;28;46358;-73
2022/09/11 05:33:47;;;;;;;;;15.33;12.33;;;;;;;;5058934;28;45423;-72
2022/09/11 05:36:13;;;;;;;;;15.67;13.33;;;;;;;;5056368;28;45300;-72
2022/09/11 05:38:39;;;;;;;;;12.67;10.33;;;;;;;;5051370;28;46718;-72
2022/09/11 05:41:05;;;;;;;;;12.67;11.33;;;;;;;;5056708;28;45327;-72
2022/09/11 05:43:31;;;;;;;;;14.33;13.00;;;;;;;;5053321;28;45454;-72
2022/09/11 05:45:57;;;;;;;;;14.33;12.67;;;;;;;;5046495;28;48153;-72
2022/09/11 05:48:23;;;;;;;;;12.67;11.67;;;;;;;;5050283;28;46039;-72
2022/09/11 05:51:01;;;;;;;;;13.00;13.00;;;;;;;;5047537;28;45630;-72
2022/09/11 05:53:27;;;;;;;;;14.00;13.00;;;;;;;;5047901;28;45233;-72
2022/09/11 05:55:53;;;;;;;;;16.00;15.00;;;;;;;;5055709;28;45496;-73
2022/09/11 05:58:19;;;;;;;;;17.67;13.67;;;;;;;;5057120;28;45333;-72
2022/09/11 06:00:45;;;;;;;;;14.33;13.33;;;;;;;;5043216;28;45379;-72
2022/09/11 06:03:14;;;;;;;;;11.00;11.00;;;;;;;;5059616;28;45319;-73
2022/09/11 06:05:39;;;;;;;;;18.33;14.00;;;;;;;;5056834;28;45576;-73
2022/09/11 06:08:05;;;;;;;;;21.67;19.33;;;;;;;;5057064;28;46234;-73
2022/09/11 06:10:30;;;;;;;;;15.00;13.33;;;;;;;;5057519;28;45251;-73
2022/09/11 06:12:56;;;;;;;;;12.67;12.67;;;;;;;;5055621;28;45350;-73
2022/09/11 06:15:21;;;;;;;;;16.00;15.00;;;;;;;;5053799;28;45568;-73
2022/09/11 06:17:47;;;;;;;;;11.67;10.67;;;;;;;;5056225;28;45973;-74
2022/09/11 06:20:12;;;;;;;;;18.67;15.00;;;;;;;;5056470;28;45259;-73
2022/09/11 06:22:37;;;;;;;;;13.00;12.33;;;;;;;;5055677;28;45372;-74
2022/09/11 06:25:03;;;;;;;;;17.33;12.67;;;;;;;;5057201;28;45574;-74
2022/09/11 06:27:28;;;;;;;;;16.67;12.33;;;;;;;;5054729;28;46097;-74
2022/09/11 06:29:54;;;;;;;;;17.33;13.67;;;;;;;;5090320;27;45439;-73
2022/09/11 06:32:19;;;;;;;;;16.00;14.00;;;;;;;;5052314;28;45421;-74
2022/09/11 06:34:45;;;;;;;;;8.33;8.33;;;;;;;;5053401;28;45303;-73
2022/09/11 06:37:10;;;;;;;;;18.00;14.67;;;;;;;;5048705;28;47282;-73
2022/09/11 06:39:36;;;;;;;;;15.33;13.67;;;;;;;;5073122;28;45454;-73
2022/09/11 06:42:01;;;;;;;;;17.67;13.00;;;;;;;;5051551;28;45557;-74
2022/09/11 06:44:26;;;;;;;;;20.33;14.33;;;;;;;;5089362;27;45654;-73
2022/09/11 06:46:52;;;;;;;;;14.33;13.00;;;;;;;;5056495;28;46114;-73
2022/09/11 06:49:17;;;;;;;;;12.67;12.67;;;;;;;;5058684;28;45335;-73
2022/09/11 06:51:42;;;;;;;;;17.00;13.00;;;;;;;;5053292;28;45334;-74
2022/09/11 06:54:07;;;;;;;;;16.33;15.00;;;;;;;;5056958;28;45400;-73
2022/09/11 06:56:33;;;;;;;;;19.00;17.00;;;;;;;;5064326;28;47853;-73
2022/09/11 06:58:58;;;;;;;;;19.67;16.00;;;;;;;;5055496;28;45338;-73
2022/09/11 07:01:23;;;;;;;;;17.33;15.00;;;;;;;;5051685;28;45239;-73
2022/09/11 07:03:50;;;;;;;;;19.00;17.67;;;;;;;;5054715;28;45207;-73
2022/09/11 07:06:17;;;;;;;;;23.00;20.00;;;;;;;;5042586;28;45336;-73
2022/09/11 07:08:42;;;;;;;;;18.00;17.00;;;;;;;;5049922;28;45397;-73
2022/09/11 07:11:08;;;;;;;;;19.00;18.33;;;;;;;;5044630;28;45419;-73
2022/09/11 07:13:35;;;;;;;;;19.67;18.00;;;;;;;;5053010;28;45288;-73
2022/09/11 07:16:01;;;;;;;;;14.00;14.00;;;;;;;;5046708;28;45440;-73
2022/09/11 07:18:31;;;;;;;;;19.00;19.00;;;;;;;;5059633;28;45297;-73
2022/09/11 07:20:56;;;;;;;;;19.33;18.00;;;;;;;;5087395;27;45243;-75
2022/09/11 07:23:21;;;;;;;;;16.33;16.33;;;;;;;;5060554;28;45289;-71
2022/09/11 07:25:48;;;;;;;;;19.67;19.33;;;;;;;;5060193;28;45296;-71
2022/09/11 07:28:13;;;;;;;;;20.67;18.00;;;;;;;;5061062;28;45367;-71
2022/09/11 07:30:39;;;;;;;;;18.33;18.33;;;;;;;;5060371;28;45539;-72
2022/09/11 07:33:04;;;;;;;;;22.00;18.33;;;;;;;;5059982;28;47147;-72
2022/09/11 07:35:29;;;;;;;;;19.33;17.67;;;;;;;;5060090;28;45584;-71
2022/09/11 07:37:56;;;;;;;;;18.33;17.00;;;;;;;;5061268;28;45422;-72
2022/09/11 07:40:22;;;;;;;;;21.00;18.33;;;;;;;;5060643;28;45509;-71
2022/09/11 07:42:47;;;;;;;;;20.33;19.00;;;;;;;;5060412;28;45874;-71
2022/09/11 07:45:12;;;;;;;;;21.33;20.67;;;;;;;;5061383;28;45339;-71
2022/09/11 07:47:37;;;;;;;;;25.33;20.67;;;;;;;;5059048;28;45418;-71
2022/09/11 07:50:03;;;;;;;;;19.33;18.00;;;;;;;;5061396;28;45279;-70
2022/09/11 07:52:28;;;;;;;;;24.67;20.33;;;;;;;;5057797;28;46626;-72
2022/09/11 07:54:53;;;;;;;;;24.00;20.67;;;;;;;;5061211;28;45460;-72
2022/09/11 07:57:20;;;;;;;;;23.00;21.33;;;;;;;;5059651;28;45348;-72
2022/09/11 07:59:45;;;;;;;;;25.00;20.00;;;;;;;;5061236;28;45391;-72
2022/09/11 08:02:11;;;;;;;;;20.33;19.33;;;;;;;;5059373;28;45436;-72
2022/09/11 08:04:36;;;;;;;;;26.00;24.33;;;;;;;;5060788;28;45477;-72
2022/09/11 08:07:01;;;;;;;;;23.67;23.67;;;;;;;;5059611;28;45422;-72
2022/09/11 08:09:27;;;;;;;;;23.00;20.33;;;;;;;;5061214;28;45406;-73
2022/09/11 08:11:57;;;;;;;;;27.67;21.67;;;;;;;;5059336;28;45435;-73
2022/09/11 08:14:23;;;;;;;;;24.67;22.00;;;;;;;;5060494;28;47312;-73
2022/09/11 08:16:48;;;;;;;;;21.33;19.67;;;;;;;;5053654;28;45375;-72
2022/09/11 08:19:18;;;;;;;;;23.67;23.67;;;;;;;;5059631;28;45318;-72
2022/09/11 08:21:43;;;;;;;;;37.33;29.67;;;;;;;;5059252;28;45555;-72
2022/09/11 08:24:10;;;;;;;;;34.00;28.67;;;;;;;;5060715;28;45406;-72
2022/09/11 08:26:36;;;;;;;;;29.33;25.00;;;;;;;;5059245;28;45485;-72
2022/09/11 08:29:01;;;;;;;;;32.67;27.00;;;;;;;;5060091;28;45601;-72
2022/09/11 08:31:27;;;;;;;;;28.00;25.67;;;;;;;;5058160;28;45482;-72
2022/09/11 08:33:53;;;;;;;;;32.00;28.33;;;;;;;;5060170;28;45442;-72
2022/09/11 08:36:18;;;;;;;;;33.67;31.67;;;;;;;;5059059;28;45479;-72
2022/09/11 08:38:44;;;;;;;;;32.67;29.67;;;;;;;;5060136;28;45478;-72
2022/09/11 08:41:10;;;;;;;;;35.33;32.00;;;;;;;;5057937;28;45150;-71
2022/09/11 08:43:37;;;;;;;;;37.50;32.00;;;;;;;;5060177;28;45277;-71
2022/09/11 08:46:05;;;;;;;;;36.33;32.00;;;;;;;;5059108;28;45276;-71
2022/09/11 08:48:53;;;;;;;;;36.67;31.67;;;;;;;;5060298;28;45257;-71
2022/09/11 08:51:19;;;;;;;;;40.00;32.67;;;;;;;;5013938;28;45642;-72
2022/09/11 08:53:45;;;;;;;;;33.67;32.00;;;;;;;;5055637;28;46264;-69
2022/09/11 08:56:21;;;;;;;;;34.33;30.67;;;;;;;;5052661;28;45289;-71
2022/09/11 08:59:05;;;;;;;;;37.33;33.00;;;;;;;;5055413;28;45383;-71
2022/09/11 09:01:30;;;;;;;;;40.50;34.50;;;;;;;;5052514;28;45638;-71
2022/09/11 09:04:05;;;;;;;;;46.00;34.50;;;;;;;;5059163;28;45287;-70
2022/09/11 09:06:33;;;;;;;;;41.00;34.33;;;;;;;;5053882;28;45308;-70
2022/09/11 09:09:17;;;;;;;;;38.33;33.33;;;;;;;;5053088;28;45464;-70
2022/09/11 09:11:49;;;;;;;;;45.33;37.00;;;;;;;;5066299;28;45660;-71
2022/09/11 09:14:20;;;;;;;;;41.33;35.33;;;;;;;;5055847;28;46044;-70
2022/09/11 09:16:58;;;;;;;;;42.00;34.67;;;;;;;;5068671;28;45851;-70
2022/09/11 09:19:38;;;;;;;;;45.50;37.75;;;;;;;;5056887;28;45344;-73
2022/09/11 09:22:14;;;;;;;;;43.33;37.33;;;;;;;;5056924;28;45229;-70
2022/09/11 09:24:52;;;;;;;;;38.67;33.33;;;;;;;;5058422;28;45553;-70
2022/09/11 09:27:21;;;;;;;;;39.33;34.67;;;;;;;;5049279;28;45441;-71
2022/09/11 09:29:48;;;;;;;;;46.33;36.67;;;;;;;;5045383;28;45293;-71
2022/09/11 09:32:19;;;;;;;;;40.33;34.00;;;;;;;;5051742;28;45360;-71
2022/09/11 09:34:45;;;;;;;;;42.67;35.00;;;;;;;;5073620;28;46494;-71
2022/09/11 09:37:16;;;;;;;;;40.33;35.33;;;;;;;;5036747;28;48050;-71
2022/09/11 09:39:42;;;;;;;;;48.67;40.33;;;;;;;;5057700;28;45368;-71
2022/09/11 09:42:27;;;;;;;;;42.67;36.00;;;;;;;;5056880;28;45523;-71
2022/09/11 09:44:55;;;;;;;;;38.67;33.00;;;;;;;;5048094;28;45422;-71
2022/09/11 09:47:20;;;;;;;;;45.67;38.33;;;;;;;;5057961;28;45313;-71
2022/09/11 09:49:46;;;;;;;;;43.00;37.00;;;;;;;;5057872;28;45338;-70
2022/09/11 09:52:15;;;;;;;;;56.00;46.33;;;;;;;;5056246;28;46239;-70
2022/09/11 09:54:41;;;;;;;;;44.67;37.33;;;;;;;;5056869;28;45407;-70
2022/09/11 09:57:09;;;;;;;;;50.00;38.33;;;;;;;;5048803;28;45439;-71
2022/09/11 09:59:50;;;;;;;;;42.67;36.67;;;;;;;;5058343;28;45466;-72
2022/09/11 10:02:49;;;;;;;;;45.67;37.00;;;;;;;;5055425;28;45812;-71
2022/09/11 10:05:25;;;;;;;;;33.00;32.00;;;;;;;;5023618;28;46654;-71
2022/09/11 10:07:58;;;;;;;;;35.00;32.33;;;;;;;;5084511;27;45395;-71
2022/09/11 10:10:26;;;;;;;;;32.00;29.33;;;;;;;;5048342;28;45329;-71
2022/09/11 10:12:53;;;;;;;;;25.00;22.33;;;;;;;;5052237;28;45205;-70
2022/09/11 10:15:22;;;;;;;;;36.33;31.33;;;;;;;;5050943;28;45389;-72
2022/09/11 10:17:49;;;;;;;;;28.67;24.67;;;;;;;;5057196;28;45263;-70
2022/09/11 10:20:14;;;;;;;;;29.67;26.00;;;;;;;;5055569;28;45274;-71
2022/09/11 10:22:39;;;;;;;;;24.67;24.67;;;;;;;;5052197;28;45640;-71
2022/09/11 10:25:09;;;;;;;;;24.00;19.33;;;;;;;;5058520;28;45287;-71
2022/09/11 10:27:37;;;;;;;;;17.67;17.67;;;;;;;;5049648;28;45375;-70
2022/09/11 10:30:03;;;;;;;;;17.50;13.00;;;;;;;;5034986;28;45413;-71
2022/09/11 10:32:28;;;;;;;;;15.00;12.33;;;;;;;;5070585;28;45756;-71
2022/09/11 10:34:54;;;;;;;;;12.00;12.00;;;;;;;;5056332;28;45249;-71
2022/09/11 10:37:25;;;;;;;;;13.25;13.25;;;;;;;;5046248;28;45280;-70
2022/09/11 10:39:51;;;;;;;;;12.33;10.67;;;;;;;;5053118;28;45491;-71
2022/09/11 10:42:22;;;;;;;;;11.75;10.00;;;;;;;;5046820;28;45371;-70
2022/09/11 10:44:49;;;;;;;;;10.00;10.00;;;;;;;;5056774;28;48146;-70
2022/09/11 10:47:16;;;;;;;;;14.25;13.00;;;;;;;;5049853;28;45394;-71
2022/09/11 10:49:41;;;;;;;;;12.00;10.75;;;;;;;;5073544;28;45473;-71
2022/09/11 10:52:07;;;;;;;;;16.33;14.00;;;;;;;;5049462;28;45256;-70
2022/09/11 10:54:35;;;;;;;;;13.00;13.00;;;;;;;;5071259;28;47269;-71
2022/09/11 10:57:06;;;;;;;;;11.75;11.00;;;;;;;;5052328;28;45466;-71
2022/09/11 10:59:39;;;;;;;;;10.00;10.00;;;;;;;;5073866;28;45461;-70
2022/09/11 11:02:14;;;;;;;;;11.00;10.00;;;;;;;;5050955;28;45478;-71
2022/09/11 11:04:39;;;;;;;;;10.75;10.75;;;;;;;;5057334;28;45779;-70
2022/09/11 11:07:15;;;;;;;;;11.25;9.00;;;;;;;;5049903;28;45352;-70
2022/09/11 11:09:41;;;;;;;;;10.00;9.00;;;;;;;;5058737;28;45322;-70
2022/09/11 11:12:13;;;;;;;;;8.25;8.25;;;;;;;;5047695;28;45537;-71
2022/09/11 11:14:48;;;;;;;;;9.75;8.50;;;;;;;;5048243;28;45591;-71
2022/09/11 11:17:22;;;;;;;;;11.00;9.00;;;;;;;;5043218;28;45559;-70
2022/09/11 11:20:06;;;;;;;;;12.00;10.00;;;;;;;;5047657;28;45264;-71
2022/09/11 11:22:50;;;;;;;;;9.00;8.50;;;;;;;;5046320;28;45384;-70
2022/09/11 11:25:21;;;;;;;;;13.00;12.00;;;;;;;;5050273;28;45511;-71
2022/09/11 11:27:59;;;;;;;;;10.00;10.00;;;;;;;;5053129;28;45399;-72
2022/09/11 11:30:29;;;;;;;;;24.33;22.67;;;;;;;;5058910;28;45361;-71
2022/09/11 11:32:54;;;;;;;;;90.50;85.50;;;;;;;;5048463;28;45590;-70
2022/09/11 11:35:19;;;;;;;;;38.50;32.00;;;;;;;;5056574;28;45462;-70
2022/09/11 11:37:46;;;;;;;;;69.75;56.25;;;;;;;;5043391;28;45346;-71
2022/09/11 11:40:17;;;;;;;;;17.67;16.33;;;;;;;;5047400;28;45323;-71
2022/09/11 11:42:45;;;;;;;;;17.00;16.33;;;;;;;;5044931;28;45636;-71
2022/09/11 11:45:49;;;;;;;;;22.00;20.67;;;;;;;;5052020;28;46320;-70
2022/09/11 11:48:19;;;;;;;;;24.00;22.33;;;;;;;;5015710;28;45346;-70
2022/09/11 11:50:56;;;;;;;;;34.67;31.33;;;;;;;;5017315;28;45416;-70
2022/09/11 11:53:23;;;;;;;;;10.75;8.50;;;;;;;;5034925;28;45584;-71
2022/09/11 11:55:55;;;;;;;;;13.50;11.75;;;;;;;;5053897;28;45589;-72
2022/09/11 11:58:21;;;;;;;;;10.50;9.50;;;;;;;;5056872;28;45548;-72
2022/09/11 12:00:50;;;;;;;;;10.25;10.00;;;;;;;;5055276;28;45533;-72
2022/09/11 12:03:18;;;;;;;;;8.25;8.25;;;;;;;;5056793;28;45259;-72
2022/09/11 12:05:43;;;;;;;;;8.00;7.00;;;;;;;;5053200;28;48199;-72
2022/09/11 12:08:12;;;;;;;;;8.00;8.00;;;;;;;;5060694;28;45379;-72
2022/09/11 12:10:39;;;;;;;;;8.75;7.75;;;;;;;;5057852;28;45264;-72
2022/09/11 12:13:06;;;;;;;;;8.00;6.00;;;;;;;;5057760;28;45416;-72
2022/09/11 12:15:33;;;;;;;;;7.00;7.00;;;;;;;;5059541;28;45317;-72
2022/09/11 12:18:00;;;;;;;;;7.00;7.00;;;;;;;;5060216;27;45354;-72
2022/09/11 12:20:39;;;;;;;;;6.50;6.50;;;;;;;;5059897;28;45301;-73
2022/09/11 12:23:06;;;;;;;;;6.50;5.75;;;;;;;;5058162;28;45493;-73
2022/09/11 12:25:31;;;;;;;;;7.50;7.50;;;;;;;;5059413;28;46220;-72
2022/09/11 12:28:15;;;;;;;;;6.25;6.25;;;;;;;;5058791;28;45457;-72
2022/09/11 12:31:00;;;;;;;;;6.50;6.00;;;;;;;;5058226;28;45394;-71
2022/09/11 12:33:46;;;;;;;;;8.75;8.75;;;;;;;;5059152;28;45362;-73
2022/09/11 12:36:23;;;;;;;;;28.33;26.00;;;;;;;;5055465;28;45551;-74
2022/09/11 12:39:08;;;;;;;;;7.00;6.50;;;;;;;;5059149;28;45392;-73
2022/09/11 12:41:34;;;;;;;;;9.50;7.25;;;;;;;;5046941;28;45536;-73
2022/09/11 12:44:01;;;;;;;;;8.00;7.50;;;;;;;;5060055;28;45281;-70
2022/09/11 12:46:29;;;;;;;;;6.25;6.25;;;;;;;;5058455;28;45564;-71
2022/09/11 12:48:56;;;;;;;;;6.25;5.50;;;;;;;;5059377;28;45202;-72
2022/09/11 12:51:23;;;;;;;;;5.25;5.25;;;;;;;;5059319;28;45491;-73
2022/09/11 12:54:09;;;;;;;;;6.50;6.00;;;;;;;;5060006;28;45481;-74
2022/09/11 12:56:34;;;;;;;;;5.25;5.25;;;;;;;;5044448;28;45417;-74
2022/09/11 12:59:03;;;;;;;;;6.75;6.75;;;;;;;;5059901;28;45306;-73
2022/09/11 13:01:30;;;;;;;;;5.25;5.25;;;;;;;;5057878;28;45272;-73
2022/09/11 13:03:56;;;;;;;;;4.25;4.25;;;;;;;;5059857;28;45454;-71
2022/09/11 13:06:21;;;;;;;;;8.25;7.25;;;;;;;;5058251;28;45671;-73
2022/09/11 13:09:00;;;;;;;;;5.00;5.00;;;;;;;;5055853;28;45320;-72
2022/09/11 13:11:36;;;;;;;;;9.75;7.00;;;;;;;;5051738;28;45384;-73
2022/09/11 13:14:02;;;;;;;;;6.75;6.75;;;;;;;;5048633;28;45466;-72
2022/09/11 13:16:29;;;;;;;;;7.00;7.00;;;;;;;;5054048;28;45308;-71
2022/09/11 13:19:15;;;;;;;;;5.40;5.40;;;;;;;;5050749;28;45430;-71
2022/09/11 13:21:41;;;;;;;;;7.00;7.00;;;;;;;;5068045;28;45550;-71
2022/09/11 13:24:39;;;;;;;;;5.50;4.75;;;;;;;;5055327;28;46984;-72
2022/09/11 13:27:06;;;;;;;;;4.80;4.80;;;;;;;;5045164;28;45509;-71
2022/09/11 13:29:33;;;;;;;;;4.80;4.80;;;;;;;;5051646;28;45245;-71
2022/09/11 13:32:04;;;;;;;;;5.25;5.25;;;;;;;;5052114;28;47962;-73
2022/09/11 13:34:29;;;;;;;;;6.00;6.00;;;;;;;;5061124;28;45767;-71
2022/09/11 13:36:56;;;;;;;;;5.00;5.00;;;;;;;;5053876;28;46352;-71
2022/09/11 13:39:22;;;;;;;;;5.20;3.00;;;;;;;;5053898;28;45268;-73
2022/09/11 13:41:49;;;;;;;;;4.80;3.80;;;;;;;;5055023;28;45462;-71
2022/09/11 13:44:34;;;;;;;;;4.80;4.80;;;;;;;;5052719;28;45646;-71
2022/09/11 13:46:59;;;;;;;;;5.00;5.00;;;;;;;;5050907;28;45743;-71
2022/09/11 13:49:35;;;;;;;;;3.75;3.75;;;;;;;;5055624;27;45569;-71
2022/09/11 13:52:03;;;;;;;;;5.20;5.20;;;;;;;;5049520;28;45547;-71
2022/09/11 13:54:30;;;;;;;;;8.00;5.20;;;;;;;;5053086;28;45249;-72
2022/09/11 13:56:56;;;;;;;;;5.60;5.40;;;;;;;;5048829;28;45464;-71
2022/09/11 13:59:41;;;;;;;;;4.25;4.25;;;;;;;;5058925;28;45414;-72
2022/09/11 14:02:27;;;;;;;;;6.80;5.20;;;;;;;;5064677;28;45936;-72
2022/09/11 14:04:58;;;;;;;;;8.40;7.00;;;;;;;;5047540;28;45223;-72
2022/09/11 14:07:25;;;;;;;;;3.80;3.80;;;;;;;;5055462;28;45468;-71
2022/09/11 14:09:57;;;;;;;;;4.60;4.40;;;;;;;;5056051;28;45405;-72
2022/09/11 14:12:23;;;;;;;;;5.60;5.00;;;;;;;;5052460;28;45524;-71
2022/09/11 14:14:51;;;;;;;;;5.00;5.00;;;;;;;;5058340;28;45586;-71
2022/09/11 14:17:17;;;;;;;;;4.20;4.20;;;;;;;;5043349;28;46383;-72
2022/09/11 14:19:44;;;;;;;;;5.75;5.00;;;;;;;;5046180;28;45153;-72
2022/09/11 14:22:14;;;;;;;;;3.80;3.80;;;;;;;;5050645;28;45451;-71
2022/09/11 14:24:49;;;;;;;;;3.60;3.60;;;;;;;;5049948;28;45260;-72
2022/09/11 14:27:29;;;;;;;;;4.00;3.60;;;;;;;;5049750;28;45381;-72
2022/09/11 14:29:55;;;;;;;;;5.20;5.20;;;;;;;;5074686;28;45353;-72